Time;durP1;ratioP1;P1;durP2;ratioP2;P2;SDS_P1;SDS_P2;PMS_P1;PMS_P2;Temp;Humidity;BMP_temperature;BMP_pressure;BME280_temperature;BME280_humidity;BME280_pressure;Samples;Min_cycle;Max_cycle;Signal;HPM_P1;HPM_P2
2023/10/08 00:03:10;;;;;;;;;;;;;;;12.37;85.90;97385.00;5064097;28;19933;-75
2023/10/08 00:05:36;;;;;;;;;;;;;;;12.38;86.39;97391.06;5064584;28;19941;-75
2023/10/08 00:08:04;;;;;;;;;;;;;;;12.38;86.36;97386.63;5063818;28;19941;-74
2023/10/08 00:10:41;;;;;;;;;;;;;;;12.39;85.14;97382.97;5064453;28;20220;-76
2023/10/08 00:13:09;;;;;;;;;;;;;;;12.41;85.62;97376.69;5063721;28;20218;-75
2023/10/08 00:15:50;;;;;;;;;;;;;;;12.43;85.67;97377.28;5064433;28;19934;-75
2023/10/08 00:18:16;;;;;;;;;;;;;;;12.42;86.39;97371.22;5064512;28;19936;-75
2023/10/08 00:20:47;;;;;;;;;;;;;;;12.42;86.56;97370.44;5063624;28;19926;-75
2023/10/08 00:23:15;;;;;;;;;;;;;;;12.42;87.03;97375.69;5064452;28;19936;-75
2023/10/08 00:25:41;;;;;;;;;;;;;;;12.41;81.27;97358.28;5064144;28;20077;-74
2023/10/08 00:28:10;;;;;;;;;;;;;;;12.42;85.14;97360.72;5063610;28;19971;-75
2023/10/08 00:30:38;;;;;;;;;;;;;;;12.42;86.29;97367.81;5063445;28;19947;-75
2023/10/08 00:33:04;;;;;;;;;;;;;;;12.41;86.62;97363.53;5063561;28;19948;-75
2023/10/08 00:35:30;;;;;;;;;;;;;;;12.38;79.22;97336.63;5063480;28;19943;-75
2023/10/08 00:38:00;;;;;;;;;;;;;;;12.38;84.48;97355.03;5064037;28;19974;-75
2023/10/08 00:40:36;;;;;;;;;;;;;;;12.37;81.73;97345.56;5064027;28;20215;-75
2023/10/08 00:43:11;;;;;;;;;;;;;;;12.38;86.45;97362.13;5064316;28;19934;-74
2023/10/08 00:45:42;;;;;;;;;;;;;;;12.37;85.87;97347.38;5067523;28;20212;-75
2023/10/08 00:48:09;;;;;;;;;;;;;;;12.34;86.71;97353.84;5067132;28;19964;-75
2023/10/08 00:50:42;;;;;;;;;;;;;;;12.34;86.30;97347.78;5067644;28;19950;-75
2023/10/08 00:53:17;;;;;;;;;;;;;;;12.32;86.34;97347.19;5067171;28;19935;-75
2023/10/08 00:55:50;;;;;;;;;;;;;;;12.29;87.30;97348.41;5067659;28;19938;-75
2023/10/08 00:58:23;;;;;;;;;;;;;;;12.28;87.29;97345.97;5067313;28;20125;-74
2023/10/08 01:00:52;;;;;;;;;;;;;;;12.25;86.04;97334.06;5067588;28;19932;-74
2023/10/08 01:03:19;;;;;;;;;;;;;;;12.21;84.47;97335.47;5066943;28;19939;-74
2023/10/08 01:05:49;;;;;;;;;;;;;;;12.19;87.33;97346.19;5066932;28;19930;-75
2023/10/08 01:08:22;;;;;;;;;;;;;;;12.13;83.49;97322.53;5066845;28;20217;-75
2023/10/08 01:10:57;;;;;;;;;;;;;;;12.11;81.64;97314.84;5067072;28;19973;-75
2023/10/08 01:13:26;;;;;;;;;;;;;;;12.09;86.45;97339.75;5066819;28;20135;-74
2023/10/08 01:15:52;;;;;;;;;;;;;;;12.08;86.42;97338.13;5067500;28;20189;-74
2023/10/08 01:18:28;;;;;;;;;;;;;;;12.08;82.58;97315.28;5066641;28;19981;-74
2023/10/08 01:20:55;;;;;;;;;;;;;;;12.09;84.77;97335.28;5067248;28;19937;-75
2023/10/08 01:23:22;;;;;;;;;;;;;;;12.08;80.39;97306.59;5066572;28;19937;-75
2023/10/08 01:25:52;;;;;;;;;;;;;;;12.07;85.28;97328.63;5066506;28;20222;-74
2023/10/08 01:28:26;;;;;;;;;;;;;;;12.03;85.18;97317.69;5066504;28;19940;-74
2023/10/08 01:30:54;;;;;;;;;;;;;;;11.99;83.67;97313.88;5066700;28;19950;-75
2023/10/08 01:33:22;;;;;;;;;;;;;;;11.97;85.74;97326.44;5066904;28;19931;-74
2023/10/08 01:35:50;;;;;;;;;;;;;;;11.97;86.90;97331.69;5066298;28;19958;-75
2023/10/08 01:38:23;;;;;;;;;;;;;;;11.94;86.40;97329.44;5066296;28;19931;-74
2023/10/08 01:40:51;;;;;;;;;;;;;;;11.95;85.62;97325.81;5066218;28;20218;-76
2023/10/08 01:43:17;;;;;;;;;;;;;;;11.94;84.47;97322.38;5066476;28;20091;-74
2023/10/08 01:45:48;;;;;;;;;;;;;;;11.91;84.77;97317.53;5066975;28;19931;-75
2023/10/08 01:48:15;;;;;;;;;;;;;;;11.92;85.96;97321.75;5066196;28;19969;-74
2023/10/08 01:50:40;;;;;;;;;;;;;;;11.92;85.39;97313.88;5066035;28;19965;-75
2023/10/08 01:53:09;;;;;;;;;;;;;;;11.94;86.03;97317.13;5066818;28;19931;-74
2023/10/08 01:55:48;;;;;;;;;;;;;;;11.93;83.48;97312.09;5064761;28;19939;-75
2023/10/08 01:58:16;;;;;;;;;;;;;;;11.90;86.19;97318.53;5067081;28;19939;-74
2023/10/08 02:00:45;;;;;;;;;;;;;;;11.89;85.83;97314.31;5065855;28;19934;-75
2023/10/08 02:03:12;;;;;;;;;;;;;;;11.88;86.86;97314.47;5066374;28;19934;-74
2023/10/08 02:05:41;;;;;;;;;;;;;;;11.89;86.88;97318.75;5065806;28;20218;-74
2023/10/08 02:08:08;;;;;;;;;;;;;;;11.88;86.19;97314.47;5065741;28;20132;-74
2023/10/08 02:10:35;;;;;;;;;;;;;;;11.87;86.29;97313.66;5065594;28;19948;-75
2023/10/08 02:13:01;;;;;;;;;;;;;;;11.86;86.48;97305.97;5064572;28;20132;-75
2023/10/08 02:15:27;;;;;;;;;;;;;;;11.86;86.84;97312.03;5066176;28;19934;-74
2023/10/08 02:17:54;;;;;;;;;;;;;;;11.84;85.55;97303.53;5065563;28;20120;-74
2023/10/08 02:20:21;;;;;;;;;;;;;;;11.83;86.63;97304.56;5065485;28;19937;-73
2023/10/08 02:22:49;;;;;;;;;;;;;;;11.83;87.18;97312.47;5065619;28;19937;-75
2023/10/08 02:25:15;;;;;;;;;;;;;;;11.82;86.88;97307.41;5065416;28;19935;-75
2023/10/08 02:27:41;;;;;;;;;;;;;;;11.79;85.76;97296.28;5066196;28;19935;-75
2023/10/08 02:30:09;;;;;;;;;;;;;;;11.77;85.82;97294.88;5065289;28;19956;-74
2023/10/08 02:32:36;;;;;;;;;;;;;;;11.75;87.03;97300.31;5065340;28;19943;-75
2023/10/08 02:35:02;;;;;;;;;;;;;;;11.74;86.95;97297.94;5065134;28;19953;-74
2023/10/08 02:37:28;;;;;;;;;;;;;;;11.73;85.29;97289.22;5065239;28;20218;-74
2023/10/08 02:39:54;;;;;;;;;;;;;;;11.70;86.89;97294.88;5065645;28;19942;-75
2023/10/08 02:42:21;;;;;;;;;;;;;;;11.68;86.09;97290.84;5065045;28;19931;-74
2023/10/08 02:44:48;;;;;;;;;;;;;;;11.64;86.74;97295.69;5065002;28;19996;-75
2023/10/08 02:47:18;;;;;;;;;;;;;;;11.63;82.20;97277.50;5065238;28;19965;-75
2023/10/08 02:49:48;;;;;;;;;;;;;;;11.63;86.58;97298.53;5065457;28;20138;-74
2023/10/08 02:52:15;;;;;;;;;;;;;;;11.63;86.64;97301.16;5064895;28;20246;-74
2023/10/08 02:54:41;;;;;;;;;;;;;;;11.62;86.97;97304.81;5064792;28;20222;-75
2023/10/08 02:57:14;;;;;;;;;;;;;;;11.60;86.73;97299.75;5063736;28;19933;-75
2023/10/08 02:59:40;;;;;;;;;;;;;;;11.60;87.25;97304.19;5065351;28;20090;-75
2023/10/08 03:02:13;;;;;;;;;;;;;;;11.58;86.94;97304.41;5065241;28;20129;-74
2023/10/08 03:04:45;;;;;;;;;;;;;;;11.56;86.58;97299.34;5064740;28;19934;-75
2023/10/08 03:07:20;;;;;;;;;;;;;;;11.55;87.37;97302.19;5064336;28;20118;-74
2023/10/08 03:09:50;;;;;;;;;;;;;;;11.51;85.45;97283.38;5064502;28;20283;-74
2023/10/08 03:12:17;;;;;;;;;;;;;;;11.49;87.43;97297.75;5063525;28;20221;-74
2023/10/08 03:15:27;;;;;;;;;;;;;;;11.47;88.26;97299.75;5064515;28;19932;-75
2023/10/08 03:17:37;;;;;;;;;;;;;;;11.46;88.22;97303.38;5063062;28;19939;-75
2023/10/08 03:22:47;;;;;;;;;;;;;;;11.45;87.71;97299.16;5064703;28;19933;-74
2023/10/08 03:25:17;;;;;;;;;;;;;;;11.45;88.13;97299.16;5064398;28;19939;-74
2023/10/08 03:27:43;;;;;;;;;;;;;;;11.46;88.17;97293.69;5064309;28;20112;-75
2023/10/08 03:30:15;;;;;;;;;;;;;;;11.45;88.80;97299.94;5064231;28;20260;-75
2023/10/08 03:32:43;;;;;;;;;;;;;;;11.45;89.14;97301.78;5064823;28;19936;-74
2023/10/08 03:35:12;;;;;;;;;;;;;;;11.46;89.90;97304.19;5063829;28;19951;-74
2023/10/08 03:37:45;;;;;;;;;;;;;;;11.44;89.71;97306.19;5064139;28;19960;-75
2023/10/08 03:40:42;;;;;;;;;;;;;;;11.44;89.61;97311.44;5064725;28;20230;-75
2023/10/08 03:43:19;;;;;;;;;;;;;;;11.42;89.57;97304.78;5064130;28;20238;-74
2023/10/08 03:45:48;;;;;;;;;;;;;;;11.42;89.87;97310.03;5063745;28;19945;-74
2023/10/08 03:48:15;;;;;;;;;;;;;;;11.42;89.77;97310.84;5064093;28;19972;-74
2023/10/08 03:50:42;;;;;;;;;;;;;;;11.41;90.00;97306.63;5063887;28;19958;-75
2023/10/08 03:53:11;;;;;;;;;;;;;;;11.41;89.52;97306.63;5064126;28;20106;-74
2023/10/08 03:55:41;;;;;;;;;;;;;;;11.40;89.66;97310.25;5063942;28;19932;-75
2023/10/08 03:58:11;;;;;;;;;;;;;;;11.38;89.74;97305.22;5064162;28;19946;-75
2023/10/08 04:00:41;;;;;;;;;;;;;;;11.38;89.99;97309.63;5063869;28;19932;-75
2023/10/08 04:03:11;;;;;;;;;;;;;;;11.38;89.65;97310.47;5064146;28;20119;-74
2023/10/08 04:08:55;;;;;;;;;;;;;;;11.36;90.05;97306.44;5022672;28;19945;-75
2023/10/08 04:11:35;;;;;;;;;;;;;;;11.34;90.36;97306.63;5022634;28;20135;-74
2023/10/08 04:14:02;;;;;;;;;;;;;;;11.34;90.29;97309.25;5049887;28;19937;-74
2023/10/08 04:16:28;;;;;;;;;;;;;;;11.34;90.31;97304.00;5063751;28;19942;-74
2023/10/08 04:19:01;;;;;;;;;;;;;;;11.33;90.19;97307.63;5066096;28;19931;-74
2023/10/08 04:21:29;;;;;;;;;;;;;;;11.31;91.58;97317.50;5068366;28;19950;-74
2023/10/08 04:23:57;;;;;;;;;;;;;;;11.29;91.60;97316.09;5067737;28;19939;-74
2023/10/08 04:26:23;;;;;;;;;;;;;;;11.25;91.25;97312.25;5067713;28;19938;-74
2023/10/08 04:29:01;;;;;;;;;;;;;;;11.22;91.74;97318.72;5067663;28;19945;-74
2023/10/08 04:31:43;;;;;;;;;;;;;;;11.22;90.99;97315.28;5068070;28;20256;-74
2023/10/08 04:34:15;;;;;;;;;;;;;;;11.20;91.77;97315.50;5067500;28;19940;-75
2023/10/08 04:37:00;;;;;;;;;;;;;;;11.18;91.50;97309.63;5068095;28;19934;-74
2023/10/08 04:39:33;;;;;;;;;;;;;;;11.18;91.62;97310.44;5067486;28;19945;-75
2023/10/08 04:42:06;;;;;;;;;;;;;;;11.17;91.50;97311.44;5068230;28;19935;-75
2023/10/08 04:44:32;;;;;;;;;;;;;;;11.15;92.14;97313.47;5067359;28;19935;-74
2023/10/08 04:47:04;;;;;;;;;;;;;;;11.14;92.66;97311.84;5067130;28;20272;-75
2023/10/08 04:49:32;;;;;;;;;;;;;;;11.13;92.36;97310.22;5067828;28;19945;-75
2023/10/08 04:52:13;;;;;;;;;;;;;;;11.13;92.62;97304.97;5067135;28;19951;-74
2023/10/08 04:54:40;;;;;;;;;;;;;;;11.13;92.43;97309.44;5067418;28;19957;-75
2023/10/08 04:57:14;;;;;;;;;;;;;;;11.11;92.72;97309.63;5067095;28;19941;-75
2023/10/08 04:59:46;;;;;;;;;;;;;;;11.11;92.79;97303.56;5067863;28;20223;-75
2023/10/08 05:02:13;;;;;;;;;;;;;;;11.11;93.67;97308.81;5067319;28;19958;-75
2023/10/08 05:07:21;;;;;;;;;;;;;;;11.11;93.01;97300.94;5067278;28;19947;-74
2023/10/08 05:18:13;;;;;;;;;;;;;;;11.08;95.99;97325.75;5030307;28;20215;-74
2023/10/08 05:25:58;;;;;;;;;;;;;;;11.03;96.33;97327.38;5067414;28;20197;-74
2023/10/08 05:28:24;;;;;;;;;;;;;;;11.02;96.69;97328.38;5066510;28;19935;-74
2023/10/08 05:31:11;;;;;;;;;;;;;;;11.01;96.96;97327.56;5066302;28;20137;-74
2023/10/08 05:42:06;;;;;;;;;;;;;;;10.97;97.97;97329.78;5066839;28;19932;-74
2023/10/08 05:44:43;;;;;;;;;;;;;;;10.98;97.42;97333.19;5066832;28;19934;-74
2023/10/08 05:49:53;;;;;;;;;;;;;;;10.96;98.48;97343.09;5066175;28;19946;-75
2023/10/08 05:52:25;;;;;;;;;;;;;;;10.96;98.29;97338.66;5066683;28;19936;-75
2023/10/08 05:55:13;;;;;;;;;;;;;;;10.95;98.87;97350.16;5066570;28;20197;-75
2023/10/08 05:57:40;;;;;;;;;;;;;;;10.95;98.47;97350.16;5066585;28;19940;-75
2023/10/08 06:11:17;;;;;;;;;;;;;;;10.97;99.86;97357.84;5066276;28;19950;-75
2023/10/08 06:13:16;;;;;;;;;;;;;;;10.99;100.00;97357.66;5060360;28;19944;-74
2023/10/08 06:15:51;;;;;;;;;;;;;;;11.02;100.00;97373.00;5065653;28;19938;-75
2023/10/08 06:18:25;;;;;;;;;;;;;;;11.04;100.00;97371.78;5065728;28;19936;-75
2023/10/08 06:20:55;;;;;;;;;;;;;;;11.07;100.00;97374.03;5065011;28;19933;-75
2023/10/08 06:23:23;;;;;;;;;;;;;;;11.09;100.00;97377.28;5065520;28;19937;-74
2023/10/08 06:25:58;;;;;;;;;;;;;;;11.12;100.00;97382.09;5065507;28;19940;-75
2023/10/08 06:28:25;;;;;;;;;;;;;;;11.16;100.00;97374.66;5065987;28;19958;-75
2023/10/08 06:30:55;;;;;;;;;;;;;;;11.21;100.00;97382.72;5065271;28;19949;-74
2023/10/08 06:33:22;;;;;;;;;;;;;;;11.27;100.00;97378.50;5065273;28;19935;-74
2023/10/08 06:36:13;;;;;;;;;;;;;;;11.34;100.00;97379.34;5065200;28;19962;-74
2023/10/08 06:38:39;;;;;;;;;;;;;;;11.43;100.00;97385.22;5065524;28;19962;-74
2023/10/08 06:41:09;;;;;;;;;;;;;;;11.49;100.00;97372.09;5064469;28;19935;-74
2023/10/08 06:43:36;;;;;;;;;;;;;;;11.62;100.00;97387.06;5065966;28;19931;-74
2023/10/08 06:46:03;;;;;;;;;;;;;;;11.83;100.00;97380.78;5065666;28;19935;-74
2023/10/08 06:48:29;;;;;;;;;;;;;;;12.13;100.00;97389.09;5064855;28;19968;-74
2023/10/08 06:50:56;;;;;;;;;;;;;;;12.43;95.42;97367.59;5064884;28;19987;-74
2023/10/08 06:53:23;;;;;;;;;;;;;;;12.68;97.29;97380.88;5064978;28;19946;-74
2023/10/08 06:55:56;;;;;;;;;;;;;;;12.89;92.79;97360.53;5065305;28;19933;-74
2023/10/08 06:58:25;;;;;;;;;;;;;;;13.07;88.34;97344.03;5064865;28;20109;-74
2023/10/08 07:00:51;;;;;;;;;;;;;;;13.16;85.88;97340.13;5064731;28;20121;-74
2023/10/08 07:03:17;;;;;;;;;;;;;;;13.28;85.72;97330.53;5064784;28;19941;-74
2023/10/08 07:05:53;;;;;;;;;;;;;;;13.42;85.58;97328.66;5064708;28;19946;-74
2023/10/08 07:08:23;;;;;;;;;;;;;;;13.50;82.36;97311.75;5065270;28;20209;-74
2023/10/08 07:10:52;;;;;;;;;;;;;;;13.53;84.22;97322.69;5065272;28;19944;-74
2023/10/08 07:13:19;;;;;;;;;;;;;;;13.48;83.18;97330.44;5064613;28;19941;-74
2023/10/08 07:15:45;;;;;;;;;;;;;;;13.40;82.10;97330.69;5064497;28;19929;-74
2023/10/08 07:18:12;;;;;;;;;;;;;;;13.33;84.42;97332.56;5064530;28;19938;-74
2023/10/08 07:20:39;;;;;;;;;;;;;;;13.29;83.19;97331.38;5064431;28;19936;-75
2023/10/08 07:23:24;;;;;;;;;;;;;;;13.29;85.55;97342.72;5064605;28;19943;-74
2023/10/08 07:26:01;;;;;;;;;;;;;;;13.29;84.87;97331.38;5064959;28;19933;-74
2023/10/08 07:28:29;;;;;;;;;;;;;;;13.26;84.74;97339.69;5064330;28;19942;-74
2023/10/08 07:30:55;;;;;;;;;;;;;;;13.31;84.35;97337.22;5064733;28;19945;-73
2023/10/08 07:33:24;;;;;;;;;;;;;;;13.34;84.39;97331.56;5064204;28;20018;-74
2023/10/08 07:35:57;;;;;;;;;;;;;;;13.35;83.05;97325.25;5064116;28;20241;-74
2023/10/08 07:38:27;;;;;;;;;;;;;;;13.40;84.90;97328.88;5064966;28;19935;-74
2023/10/08 07:40:55;;;;;;;;;;;;;;;13.60;85.06;97325.25;5064563;28;19993;-74
2023/10/08 07:43:21;;;;;;;;;;;;;;;13.75;83.70;97311.75;5064904;28;19940;-74
2023/10/08 07:45:47;;;;;;;;;;;;;;;13.86;84.90;97323.41;5064030;28;19939;-74
2023/10/08 07:48:13;;;;;;;;;;;;;;;13.97;84.24;97320.88;5063879;28;20000;-74
2023/10/08 07:50:43;;;;;;;;;;;;;;;14.11;84.73;97324.22;5063863;28;19958;-75
2023/10/08 07:53:17;;;;;;;;;;;;;;;14.23;84.51;97332.19;5064486;28;20215;-74
2023/10/08 07:55:45;;;;;;;;;;;;;;;14.30;83.47;97327.66;5064437;28;19934;-75
2023/10/08 07:58:11;;;;;;;;;;;;;;;14.41;84.07;97341.94;5064434;28;19936;-74
2023/10/08 08:00:39;;;;;;;;;;;;;;;14.45;85.58;97350.22;5063886;28;20127;-74
2023/10/08 08:03:05;;;;;;;;;;;;;;;14.46;83.31;97341.28;5063891;28;20097;-74
2023/10/08 08:05:31;;;;;;;;;;;;;;;14.45;84.11;97343.13;5063878;28;19938;-74
2023/10/08 08:07:59;;;;;;;;;;;;;;;14.45;84.19;97344.94;5063830;28;20149;-74
2023/10/08 08:10:25;;;;;;;;;;;;;;;14.45;84.06;97342.28;5063720;28;19937;-74
2023/10/08 08:12:56;;;;;;;;;;;;;;;14.45;84.92;97350.22;5064282;28;19941;-74
2023/10/08 08:15:22;;;;;;;;;;;;;;;14.48;86.85;97355.06;5064579;28;20252;-74
2023/10/08 08:17:48;;;;;;;;;;;;;;;14.53;87.45;97358.66;5064509;28;19939;-74
2023/10/08 08:20:17;;;;;;;;;;;;;;;14.64;87.01;97356.34;5064543;28;20299;-74
2023/10/08 08:22:49;;;;;;;;;;;;;;;14.72;85.62;97351.56;5063707;28;19935;-75
2023/10/08 08:25:16;;;;;;;;;;;;;;;14.78;85.92;97353.31;5064276;28;19937;-74
2023/10/08 08:27:44;;;;;;;;;;;;;;;14.85;86.25;97355.88;5064206;28;19938;-75
2023/10/08 08:30:10;;;;;;;;;;;;;;;14.87;86.04;97350.38;5063588;28;19937;-74
2023/10/08 08:32:39;;;;;;;;;;;;;;;14.92;86.83;97355.78;5063723;28;19954;-75
2023/10/08 08:35:09;;;;;;;;;;;;;;;15.04;86.27;97356.66;5063550;28;19949;-74
2023/10/08 08:37:35;;;;;;;;;;;;;;;15.26;85.40;97348.22;5063753;28;19938;-74
2023/10/08 08:40:20;;;;;;;;;;;;;;;15.50;85.12;97339.31;5063500;28;19931;-74
2023/10/08 08:42:47;;;;;;;;;;;;;;;15.78;83.96;97345.81;5064321;28;19954;-74
2023/10/08 08:45:18;;;;;;;;;;;;;;;15.95;84.76;97338.00;5063998;28;19937;-74
2023/10/08 08:47:45;;;;;;;;;;;;;;;16.14;81.79;97331.56;5063669;28;19966;-75
2023/10/08 08:50:11;;;;;;;;;;;;;;;16.33;81.14;97328.78;5064013;28;20294;-74
2023/10/08 08:52:40;;;;;;;;;;;;;;;16.51;82.56;97347.16;5063362;28;19950;-74
2023/10/08 08:55:14;;;;;;;;;;;;;;;16.70;81.63;97350.47;5062755;28;20975;-74
2023/10/08 08:57:44;;;;;;;;;;;;;;;16.82;80.55;97356.56;5063248;28;19943;-74
2023/10/08 09:00:14;;;;;;;;;;;;;;;16.90;79.30;97365.16;5064116;28;19942;-74
2023/10/08 09:02:40;;;;;;;;;;;;;;;16.98;81.42;97370.91;5063336;28;19938;-75
2023/10/08 09:05:25;;;;;;;;;;;;;;;17.09;80.65;97369.25;5065750;28;19938;-74
2023/10/08 09:07:52;;;;;;;;;;;;;;;17.24;81.39;97371.41;5067775;28;19933;-74
2023/10/08 09:10:18;;;;;;;;;;;;;;;17.38;80.14;97366.59;5067183;28;19942;-74
2023/10/08 09:12:45;;;;;;;;;;;;;;;17.53;81.48;97366.03;5066765;28;20187;-75
2023/10/08 09:15:10;;;;;;;;;;;;;;;17.65;76.80;97343.69;5066852;28;19931;-74
2023/10/08 09:17:39;;;;;;;;;;;;;;;17.74;79.93;97360.00;5066772;28;19944;-75
2023/10/08 09:20:06;;;;;;;;;;;;;;;17.85;77.96;97361.03;5066696;28;19933;-74
2023/10/08 09:22:35;;;;;;;;;;;;;;;17.95;80.67;97369.13;5066697;28;19961;-74
2023/10/08 09:25:05;;;;;;;;;;;;;;;18.06;80.12;97383.38;5067316;28;19936;-74
2023/10/08 09:27:30;;;;;;;;;;;;;;;18.17;75.88;97357.78;5066739;28;19939;-74
2023/10/08 09:29:56;;;;;;;;;;;;;;;18.28;78.04;97372.81;5066491;28;20224;-74
2023/10/08 09:32:25;;;;;;;;;;;;;;;18.38;76.79;97361.53;5066377;28;20167;-74
2023/10/08 09:34:52;;;;;;;;;;;;;;;18.46;78.23;97361.09;5066581;28;19975;-74
2023/10/08 09:37:21;;;;;;;;;;;;;;;18.57;77.10;97367.34;5066434;28;20133;-74
2023/10/08 09:39:48;;;;;;;;;;;;;;;18.69;78.68;97368.03;5066366;28;19928;-74
2023/10/08 09:42:14;;;;;;;;;;;;;;;18.83;78.43;97363.97;5066435;28;19944;-75
2023/10/08 09:44:42;;;;;;;;;;;;;;;18.98;79.19;97367.84;5066787;28;19941;-75
2023/10/08 09:47:12;;;;;;;;;;;;;;;19.16;77.82;97364.06;5066405;28;19960;-74
2023/10/08 09:49:46;;;;;;;;;;;;;;;19.35;78.28;97364.53;5066761;28;19939;-74
2023/10/08 09:52:12;;;;;;;;;;;;;;;19.57;78.38;97359.94;5066639;28;19963;-74
2023/10/08 09:54:43;;;;;;;;;;;;;;;19.77;73.65;97346.00;5066652;28;19937;-74
2023/10/08 09:57:10;;;;;;;;;;;;;;;19.92;76.22;97353.31;5066872;28;19944;-74
2023/10/08 09:59:38;;;;;;;;;;;;;;;19.99;75.08;97350.41;5065974;28;19935;-75
2023/10/08 10:02:04;;;;;;;;;;;;;;;20.02;72.68;97344.59;5066728;28;19942;-75
2023/10/08 10:04:31;;;;;;;;;;;;;;;20.04;74.53;97363.78;5065956;28;19929;-74
2023/10/08 10:06:58;;;;;;;;;;;;;;;20.04;73.74;97350.47;5065788;28;19941;-74
2023/10/08 10:09:24;;;;;;;;;;;;;;;20.03;74.79;97354.19;5066592;28;19938;-74
2023/10/08 10:11:52;;;;;;;;;;;;;;;20.06;75.92;97370.44;5065657;28;19958;-74
2023/10/08 10:14:22;;;;;;;;;;;;;;;20.14;74.44;97365.69;5065707;28;19942;-75
2023/10/08 10:16:48;;;;;;;;;;;;;;;20.22;73.36;97360.72;5064653;28;20222;-74
2023/10/08 10:19:20;;;;;;;;;;;;;;;20.32;72.29;97349.28;5065676;28;19936;-75
2023/10/08 10:21:47;;;;;;;;;;;;;;;20.46;70.51;97344.31;5065558;28;19933;-74
2023/10/08 10:24:27;;;;;;;;;;;;;;;20.52;72.93;97361.13;5066370;28;19942;-74
2023/10/08 10:27:09;;;;;;;;;;;;;;;20.53;72.38;97360.06;5065739;28;20122;-74
2023/10/08 10:29:35;;;;;;;;;;;;;;;20.56;70.53;97351.56;5066261;28;19937;-75
2023/10/08 10:32:02;;;;;;;;;;;;;;;20.56;71.93;97352.34;5065902;28;19960;-74
2023/10/08 10:34:28;;;;;;;;;;;;;;;20.57;71.03;97351.28;5065319;28;20237;-74
2023/10/08 10:37:08;;;;;;;;;;;;;;;20.62;72.24;97353.19;5065303;28;19932;-74
2023/10/08 10:39:39;;;;;;;;;;;;;;;20.74;71.12;97356.44;5065796;28;19945;-74
2023/10/08 10:42:18;;;;;;;;;;;;;;;20.85;71.89;97350.09;5065970;28;19936;-74
2023/10/08 10:44:49;;;;;;;;;;;;;;;21.01;72.52;97350.94;5066010;28;19926;-74
2023/10/08 10:52:34;;;;;;;;;;;;;;;21.54;72.97;97345.44;5065528;28;19947;-74
2023/10/08 10:57:42;;;;;;;;;;;;;;;21.87;70.77;97338.75;5064934;28;19945;-75
2023/10/08 11:02:59;;;;;;;;;;;;;;;22.14;66.09;97323.50;5065326;28;19930;-74
2023/10/08 11:05:28;;;;;;;;;;;;;;;22.30;65.88;97335.81;5064791;28;19932;-74
2023/10/08 11:08:04;;;;;;;;;;;;;;;22.42;69.63;97341.63;5064658;28;20214;-74
2023/10/08 11:10:30;;;;;;;;;;;;;;;22.62;67.98;97337.28;5064685;28;19937;-74
2023/10/08 11:12:58;;;;;;;;;;;;;;;22.79;64.70;97331.59;5064532;28;19952;-74
2023/10/08 11:15:37;;;;;;;;;;;;;;;22.87;65.97;97331.81;5065105;28;19943;-74
2023/10/08 11:18:09;;;;;;;;;;;;;;;22.91;64.40;97326.72;5065338;28;19939;-74
2023/10/08 11:20:44;;;;;;;;;;;;;;;22.90;63.61;97325.91;5065053;28;19960;-75
2023/10/08 11:23:19;;;;;;;;;;;;;;;22.90;62.65;97331.25;5064484;28;19939;-74
2023/10/08 11:25:54;;;;;;;;;;;;;;;22.95;60.94;97333.13;5064946;28;19955;-74
2023/10/08 11:28:20;;;;;;;;;;;;;;;23.06;58.55;97326.66;5064868;28;19930;-74
2023/10/08 11:30:50;;;;;;;;;;;;;;;23.18;62.83;97328.19;5064288;28;19938;-73
2023/10/08 11:33:16;;;;;;;;;;;;;;;23.23;60.83;97326.28;5064746;28;20112;-74
2023/10/08 11:35:55;;;;;;;;;;;;;;;23.25;60.30;97328.69;5064323;28;19947;-75
2023/10/08 11:38:22;;;;;;;;;;;;;;;23.23;59.89;97314.78;5064183;28;19931;-74
2023/10/08 11:40:56;;;;;;;;;;;;;;;23.21;60.85;97314.28;5064165;28;19991;-74
2023/10/08 11:43:23;;;;;;;;;;;;;;;23.21;61.95;97319.63;5064937;28;19937;-74
2023/10/08 11:45:49;;;;;;;;;;;;;;;23.22;62.01;97321.22;5064870;28;19938;-74
2023/10/08 11:48:21;;;;;;;;;;;;;;;23.20;61.48;97309.97;5063940;28;20237;-74
2023/10/08 11:50:50;;;;;;;;;;;;;;;23.19;59.00;97319.88;5064037;28;19961;-74
2023/10/08 11:53:18;;;;;;;;;;;;;;;23.20;62.29;97318.00;5063982;28;19950;-75
2023/10/08 11:55:47;;;;;;;;;;;;;;;23.18;65.36;97337.03;5064471;28;20089;-75
2023/10/08 11:58:17;;;;;;;;;;;;;;;23.14;66.60;97324.47;5063942;28;19947;-74
2023/10/08 12:00:52;;;;;;;;;;;;;;;23.12;66.74;97326.63;5064051;28;19943;-75
2023/10/08 12:03:18;;;;;;;;;;;;;;;23.09;67.44;97325.31;5063943;28;20128;-75
2023/10/08 12:05:47;;;;;;;;;;;;;;;23.09;66.09;97328.78;5063874;28;20135;-74
2023/10/08 12:08:16;;;;;;;;;;;;;;;23.19;67.21;97325.25;5064677;28;19941;-74
2023/10/08 12:10:48;;;;;;;;;;;;;;;23.30;64.64;97320.63;5063812;28;19940;-75
2023/10/08 12:13:18;;;;;;;;;;;;;;;23.42;63.48;97317.59;5062535;28;19967;-74
2023/10/08 12:15:44;;;;;;;;;;;;;;;23.55;62.98;97314.28;5063722;28;20128;-75
2023/10/08 12:18:15;;;;;;;;;;;;;;;23.66;62.91;97305.06;5064523;28;19936;-74
2023/10/08 12:20:46;;;;;;;;;;;;;;;23.80;60.18;97307.94;5064047;28;20124;-74
2023/10/08 12:23:19;;;;;;;;;;;;;;;23.89;57.83;97302.75;5064491;28;20105;-74
2023/10/08 12:25:51;;;;;;;;;;;;;;;23.98;58.24;97302.94;5064472;28;19933;-75
2023/10/08 12:28:18;;;;;;;;;;;;;;;24.01;54.87;97297.81;5063962;28;19936;-74
2023/10/08 12:30:49;;;;;;;;;;;;;;;24.09;56.34;97299.09;5063639;28;19933;-74
2023/10/08 12:33:15;;;;;;;;;;;;;;;24.20;55.29;97299.78;5064105;28;19948;-74
2023/10/08 12:35:43;;;;;;;;;;;;;;;24.31;54.95;97302.03;5063576;28;19945;-74
2023/10/08 12:38:09;;;;;;;;;;;;;;;24.42;58.18;97302.75;5063512;28;19935;-73
2023/10/08 12:40:47;;;;;;;;;;;;;;;24.50;55.34;97298.63;5067751;28;20152;-74
2023/10/08 12:43:18;;;;;;;;;;;;;;;24.60;57.70;97300.41;5068365;28;19936;-74
2023/10/08 12:45:51;;;;;;;;;;;;;;;24.64;52.21;97296.84;5068169;28;19937;-75
2023/10/08 12:48:25;;;;;;;;;;;;;;;24.70;56.00;97297.59;5067363;28;19967;-75
2023/10/08 12:50:58;;;;;;;;;;;;;;;24.77;57.76;97300.72;5068123;28;20240;-74
2023/10/08 12:53:27;;;;;;;;;;;;;;;24.85;58.11;97301.94;5067755;28;19946;-74
2023/10/08 12:55:53;;;;;;;;;;;;;;;24.88;52.39;97291.44;5067240;28;19950;-74
2023/10/08 12:58:29;;;;;;;;;;;;;;;24.95;56.09;97291.09;5067225;28;19927;-75
2023/10/08 13:01:03;;;;;;;;;;;;;;;25.04;55.65;97288.53;5067150;28;19935;-74
2023/10/08 13:03:31;;;;;;;;;;;;;;;25.14;58.39;97285.72;5067585;28;19930;-74
2023/10/08 13:06:03;;;;;;;;;;;;;;;25.15;57.73;97289.19;5067050;28;20146;-75
2023/10/08 13:08:30;;;;;;;;;;;;;;;25.15;54.51;97295.34;5067601;28;19943;-74
2023/10/08 13:11:00;;;;;;;;;;;;;;;25.19;53.77;97292.88;5066988;28;19940;-74
2023/10/08 13:13:27;;;;;;;;;;;;;;;25.23;52.92;97283.19;5066866;28;19953;-74
2023/10/08 13:15:56;;;;;;;;;;;;;;;25.26;50.02;97282.59;5067425;28;19930;-74
2023/10/08 13:18:22;;;;;;;;;;;;;;;25.30;54.74;97287.09;5066779;28;19940;-74
2023/10/08 13:20:48;;;;;;;;;;;;;;;25.33;53.71;97279.56;5066742;28;19957;-74
2023/10/08 13:23:14;;;;;;;;;;;;;;;25.35;55.76;97280.84;5067563;28;20212;-74
2023/10/08 13:25:40;;;;;;;;;;;;;;;25.38;53.72;97274.09;5067465;28;20090;-75
2023/10/08 13:28:09;;;;;;;;;;;;;;;25.44;54.68;97275.59;5066614;28;19966;-75
2023/10/08 13:30:35;;;;;;;;;;;;;;;25.47;53.74;97275.81;5066546;28;19935;-74
2023/10/08 13:33:01;;;;;;;;;;;;;;;25.46;51.40;97270.72;5066431;28;19983;-75
2023/10/08 13:35:27;;;;;;;;;;;;;;;25.43;52.27;97268.63;5066431;28;19942;-75
2023/10/08 13:37:52;;;;;;;;;;;;;;;25.40;51.71;97267.31;5066970;28;19935;-74
2023/10/08 13:40:18;;;;;;;;;;;;;;;25.41;53.49;97260.88;5066831;28;19938;-75
2023/10/08 13:42:44;;;;;;;;;;;;;;;25.41;52.83;97255.50;5066350;28;19936;-75
2023/10/08 13:45:16;;;;;;;;;;;;;;;25.44;54.23;97251.44;5066363;28;19958;-74
2023/10/08 13:47:42;;;;;;;;;;;;;;;25.46;53.90;97260.00;5065038;28;20291;-74
2023/10/08 13:50:10;;;;;;;;;;;;;;;25.47;54.00;97262.41;5066133;28;20002;-75
2023/10/08 13:52:38;;;;;;;;;;;;;;;25.45;54.10;97253.84;5066066;28;19953;-75
2023/10/08 13:55:06;;;;;;;;;;;;;;;25.41;53.02;97255.50;5066095;28;19930;-75